createdAt,value
2023-03-12T00:02:06.845Z,-2.36
2023-03-12T00:05:00.866Z,-2.36
2023-03-12T00:07:47.852Z,-2.38
2023-03-12T00:10:27.849Z,-2.34
2023-03-12T00:13:21.845Z,-2.31
2023-03-12T00:16:17.873Z,-2.37
2023-03-12T00:18:53.955Z,-2.37
2023-03-12T00:21:40.853Z,-2.44
2023-03-12T00:24:14.932Z,-2.47
2023-03-12T00:27:01.861Z,-2.46
2023-03-12T00:29:34.937Z,-2.49
2023-03-12T00:32:21.899Z,-2.51
2023-03-12T00:34:59.030Z,-2.55
2023-03-12T00:37:45.852Z,-2.54
2023-03-12T00:40:19.949Z,-2.56
2023-03-12T00:43:06.836Z,-2.56
2023-03-12T00:45:39.966Z,-2.56
2023-03-12T00:48:33.844Z,-2.64
2023-03-12T00:51:27.880Z,-2.64
2023-03-12T00:54:15.096Z,-2.62
2023-03-12T00:56:48.010Z,-2.62
2023-03-12T00:59:34.853Z,-2.64
2023-03-12T01:02:07.937Z,-2.67
2023-03-12T01:04:54.896Z,-2.67
2023-03-12T01:07:34.941Z,-2.70
2023-03-12T01:10:16.847Z,-2.73
2023-03-12T01:13:03.869Z,-2.71
2023-03-12T01:15:37.236Z,-2.71
2023-03-12T01:18:23.898Z,-2.73
2023-03-12T01:20:57.366Z,-2.74
2023-03-12T01:23:43.879Z,-2.76
2023-03-12T01:26:17.717Z,-2.76
2023-03-12T01:29:04.853Z,-2.75
2023-03-12T01:31:38.341Z,-2.77
2023-03-12T01:34:25.892Z,-2.75
2023-03-12T01:36:59.439Z,-2.75
2023-03-12T01:39:45.858Z,-2.76
2023-03-12T01:42:19.301Z,-2.78
2023-03-12T01:45:15.884Z,-2.77
2023-03-12T01:47:55.877Z,-2.80
2023-03-12T01:50:42.885Z,-2.86
2023-03-12T01:53:17.035Z,-2.90
2023-03-12T01:56:04.929Z,-2.92
2023-03-12T01:58:41.044Z,-2.98
2023-03-12T02:01:30.926Z,-2.99
2023-03-12T02:04:10.927Z,-2.96
2023-03-12T02:07:11.865Z,-2.95
2023-03-12T02:09:48.730Z,-2.94
2023-03-12T02:12:35.881Z,-2.89
2023-03-12T02:15:16.861Z,-2.84
2023-03-12T02:17:56.999Z,-2.80
2023-03-12T02:20:54.873Z,-2.80
2023-03-12T02:23:53.983Z,-2.76
2023-03-12T02:26:35.875Z,-2.75
2023-03-12T02:29:23.889Z,-2.71
2023-03-12T02:32:00.888Z,-2.73
2023-03-12T02:34:47.881Z,-2.76
2023-03-12T02:37:21.308Z,-2.73
2023-03-12T02:40:31.886Z,-2.71
2023-03-12T02:43:07.674Z,-2.71
2023-03-12T02:45:53.897Z,-2.69
2023-03-12T02:48:27.307Z,-2.71
2023-03-12T02:51:13.930Z,-2.73
2023-03-12T02:53:47.313Z,-2.73
2023-03-12T02:56:38.896Z,-2.77
2023-03-12T02:59:20.897Z,-2.82
2023-03-12T03:02:03.462Z,-2.79
2023-03-12T03:04:42.888Z,-2.78
2023-03-12T03:07:22.976Z,-2.80
2023-03-12T03:10:02.913Z,-2.83
2023-03-12T03:12:44.384Z,-2.85
2023-03-12T03:15:23.889Z,-2.88
2023-03-12T03:18:10.905Z,-2.84
2023-03-12T03:20:51.911Z,-2.85
2023-03-12T03:23:38.912Z,-2.89
2023-03-12T03:26:18.887Z,-2.95
2023-03-12T03:29:05.909Z,-2.96
2023-03-12T03:31:45.910Z,-3.03
2023-03-12T03:34:26.014Z,-3.15
2023-03-12T03:37:05.861Z,-3.17
2023-03-12T03:39:45.984Z,-3.21
2023-03-12T03:42:25.906Z,-3.26
2023-03-12T03:45:12.903Z,-3.32
2023-03-12T03:47:52.942Z,-3.34
2023-03-12T03:50:32.985Z,-3.40
2023-03-12T03:53:15.898Z,-3.48
2023-03-12T03:56:02.919Z,-3.52
2023-03-12T03:58:36.332Z,-3.60
2023-03-12T04:01:22.925Z,-3.67
2023-03-12T04:03:56.240Z,-3.70
2023-03-12T04:06:42.918Z,-3.73
2023-03-12T04:09:18.134Z,-3.78
2023-03-12T04:12:04.908Z,-3.82
2023-03-12T04:14:42.459Z,-3.85
2023-03-12T04:17:28.897Z,-3.87
2023-03-12T04:20:08.924Z,-3.94
2023-03-12T04:22:49.004Z,-4.01
2023-03-12T04:25:28.913Z,-4.11
2023-03-12T04:28:08.927Z,-4.17
2023-03-12T04:30:48.989Z,-4.23
2023-03-12T04:33:22.425Z,-4.27
2023-03-12T04:36:08.994Z,-4.30
2023-03-12T04:38:42.317Z,-4.33
2023-03-12T04:41:29.955Z,-4.37
2023-03-12T04:44:04.674Z,-4.41
2023-03-12T04:46:51.028Z,-4.43
2023-03-12T04:49:30.991Z,-4.46
2023-03-12T04:52:17.963Z,-4.53
2023-03-12T04:54:51.311Z,-4.57
2023-03-12T04:57:37.954Z,-4.60
2023-03-12T05:00:19.943Z,-4.62
2023-03-12T05:03:00.082Z,-4.66
2023-03-12T05:05:39.927Z,-4.68
2023-03-12T05:08:26.941Z,-4.71
2023-03-12T05:11:06.935Z,-4.74
2023-03-12T05:13:47.071Z,-4.78
2023-03-12T05:16:27.020Z,-4.79
2023-03-12T05:19:07.061Z,-4.87
2023-03-12T05:21:48.931Z,-4.86
2023-03-12T05:24:35.966Z,-4.88
2023-03-12T05:27:15.934Z,-4.88
2023-03-12T05:29:56.037Z,-4.87
2023-03-12T05:32:36.029Z,-4.85
2023-03-12T05:35:16.044Z,-4.87
2023-03-12T05:37:55.999Z,-4.86
2023-03-12T05:40:43.988Z,-4.86
2023-03-12T05:43:23.941Z,-4.83
2023-03-12T05:46:16.043Z,-4.84
2023-03-12T05:48:55.949Z,-4.80
2023-03-12T05:51:42.958Z,-4.79
2023-03-12T05:54:17.597Z,-4.75
2023-03-12T05:57:03.989Z,-4.54
2023-03-12T05:59:37.308Z,-4.25
2023-03-12T06:02:23.965Z,-3.98
2023-03-12T06:04:58.480Z,-3.70
2023-03-12T06:07:45.005Z,-3.38
2023-03-12T06:10:19.361Z,-3.04
2023-03-12T06:13:05.973Z,-2.76
2023-03-12T06:15:39.355Z,-2.50
2023-03-12T06:18:25.974Z,-2.23
2023-03-12T06:21:14.231Z,-1.95
2023-03-12T06:24:08.002Z,-1.78
2023-03-12T06:26:54.972Z,-1.57
2023-03-12T06:29:28.118Z,-1.31
2023-03-12T06:32:15.129Z,-1.07
2023-03-12T06:34:54.963Z,-0.83
2023-03-12T06:37:41.965Z,-0.61
2023-03-12T06:40:22.956Z,-0.48
2023-03-12T06:43:09.981Z,-0.30
2023-03-12T06:45:43.064Z,-0.15
2023-03-12T06:48:37.969Z,-0.05
2023-03-12T06:51:24.983Z,0.13
2023-03-12T06:53:58.069Z,0.28
2023-03-12T06:56:44.954Z,0.47
2023-03-12T06:59:21.844Z,0.57
2023-03-12T07:02:09.014Z,0.69
2023-03-12T07:04:42.089Z,0.87
2023-03-12T07:07:28.968Z,0.97
2023-03-12T07:10:08.991Z,1.11
2023-03-12T07:12:55.978Z,1.10
2023-03-12T07:15:30.106Z,1.16
2023-03-12T07:18:17.997Z,1.04
2023-03-12T07:20:51.144Z,1.12
2023-03-12T07:23:37.977Z,1.19
2023-03-12T07:26:18.972Z,1.15
2023-03-12T07:29:05.993Z,1.16
2023-03-12T07:31:39.205Z,1.14
2023-03-12T07:34:26.061Z,1.28
2023-03-12T07:37:00.068Z,1.31
2023-03-12T07:39:47.011Z,1.44
2023-03-12T07:42:20.107Z,1.42
2023-03-12T07:45:07.030Z,1.38
2023-03-12T07:47:40.185Z,1.47
2023-03-12T07:50:27.030Z,1.64
2023-03-12T07:53:06.984Z,1.81
2023-03-12T07:56:01.100Z,2.02
2023-03-12T07:58:48.030Z,2.11
2023-03-12T08:01:28.115Z,2.17
2023-03-12T08:04:22.024Z,2.42
2023-03-12T08:07:09.458Z,2.75
2023-03-12T08:09:43.269Z,2.81
2023-03-12T08:12:30.048Z,2.91
2023-03-12T08:15:10.010Z,2.93
2023-03-12T08:18:03.982Z,3.00
2023-03-12T08:20:51.001Z,3.03
2023-03-12T08:23:30.990Z,3.08
2023-03-12T08:26:25.006Z,3.05
2023-03-12T08:29:12.018Z,3.11
2023-03-12T08:32:03.403Z,3.20
2023-03-12T08:34:51.022Z,3.34
2023-03-12T08:37:31.002Z,3.47
2023-03-12T08:40:22.001Z,3.53
2023-03-12T08:43:02.016Z,3.69
2023-03-12T08:45:57.026Z,3.93
2023-03-12T08:48:51.007Z,4.13
2023-03-12T08:51:45.014Z,4.40
2023-03-12T08:54:32.033Z,4.67
2023-03-12T08:57:12.019Z,4.83
2023-03-12T08:59:59.053Z,4.99
2023-03-12T09:02:34.085Z,5.01
2023-03-12T09:05:21.039Z,5.27
2023-03-12T09:08:02.053Z,5.48
2023-03-12T09:10:55.044Z,5.54
2023-03-12T09:13:45.318Z,5.68
2023-03-12T09:16:36.048Z,5.63
2023-03-12T09:19:09.186Z,5.80
2023-03-12T09:21:56.020Z,5.61
2023-03-12T09:24:29.128Z,5.70
2023-03-12T09:27:16.043Z,5.60
2023-03-12T09:29:59.301Z,5.47
2023-03-12T09:32:47.141Z,5.53
2023-03-12T09:35:22.173Z,5.52
2023-03-12T09:38:10.016Z,5.21
2023-03-12T09:40:44.140Z,4.93
2023-03-12T09:44:10.002Z,4.91
2023-03-12T09:47:01.106Z,4.91
2023-03-12T09:50:04.020Z,4.78
2023-03-12T09:53:34.042Z,4.65
2023-03-12T09:56:32.043Z,4.55
2023-03-12T09:59:26.036Z,4.40
2023-03-12T10:02:39.024Z,4.36
2023-03-12T10:05:29.060Z,4.32
2023-03-12T10:08:24.425Z,4.23
2023-03-12T10:11:15.044Z,4.12
2023-03-12T10:14:07.142Z,4.17
2023-03-12T10:17:24.021Z,4.24
2023-03-12T10:20:17.054Z,4.24
2023-03-12T10:23:22.032Z,4.24
2023-03-12T10:26:23.044Z,4.16
2023-03-12T10:29:00.259Z,4.03
2023-03-12T10:32:02.088Z,3.93
2023-03-12T10:34:59.051Z,3.82
2023-03-12T10:37:52.065Z,3.83
2023-03-12T10:40:31.228Z,3.76
2023-03-12T10:43:18.068Z,3.68
2023-03-12T10:46:20.063Z,3.65
2023-03-12T10:49:37.052Z,3.68
2023-03-12T10:52:29.066Z,3.64
2023-03-12T10:59:05.079Z,3.70
2023-03-12T11:01:56.094Z,3.59
2023-03-12T11:04:37.158Z,3.58
2023-03-12T11:07:39.061Z,3.71
2023-03-12T11:10:22.110Z,3.70
2023-03-12T11:13:19.057Z,3.60
2023-03-12T11:16:24.180Z,3.50
2023-03-12T11:19:13.061Z,3.56
2023-03-12T11:22:14.062Z,3.61
2023-03-12T11:25:13.070Z,3.63
2023-03-12T11:27:56.237Z,3.58
2023-03-12T11:30:46.111Z,3.58
2023-03-12T11:33:20.171Z,3.62
2023-03-12T11:36:25.081Z,3.72
2023-03-12T11:39:10.219Z,3.80
2023-03-12T11:42:00.079Z,3.77
2023-03-12T11:44:58.366Z,3.72
2023-03-12T11:47:57.065Z,3.71
2023-03-12T11:50:43.095Z,3.70
2023-03-12T11:53:51.075Z,3.84
2023-03-12T11:56:40.267Z,3.91
2023-03-12T11:59:30.279Z,4.03
2023-03-12T12:02:20.487Z,4.15
2023-03-12T12:05:13.084Z,4.14
2023-03-12T12:08:04.199Z,4.18
2023-03-12T12:11:15.080Z,4.14
2023-03-12T12:13:59.162Z,4.12
2023-03-12T12:17:08.153Z,4.03
2023-03-12T12:19:59.173Z,4.00
2023-03-12T12:23:09.095Z,3.89
2023-03-12T12:25:53.201Z,3.81
2023-03-12T12:28:49.097Z,3.71
2023-03-12T12:31:52.197Z,3.67
2023-03-12T12:35:07.112Z,3.63
2023-03-12T12:38:05.235Z,3.56
2023-03-12T12:40:58.101Z,3.50
2023-03-12T12:43:46.097Z,3.47
2023-03-12T12:46:43.102Z,3.48
2023-03-12T12:49:49.105Z,3.44
2023-03-12T12:52:43.075Z,3.43
2023-03-12T12:55:39.102Z,3.45
2023-03-12T12:58:26.201Z,3.47
2023-03-12T13:01:14.128Z,3.48
2023-03-12T13:03:52.234Z,3.51
2023-03-12T13:07:07.124Z,3.50
2023-03-12T13:09:45.213Z,3.53
2023-03-12T13:12:32.155Z,3.47
2023-03-12T13:15:14.120Z,3.43
2023-03-12T13:18:32.125Z,3.39
2023-03-12T13:21:28.120Z,3.36
2023-03-12T13:24:29.217Z,3.33
2023-03-12T13:27:32.131Z,3.30
2023-03-12T13:30:05.274Z,3.27
2023-03-12T13:32:55.141Z,3.25
2023-03-12T13:35:28.260Z,3.26
2023-03-12T13:38:24.113Z,3.23
2023-03-12T13:41:22.139Z,3.24
2023-03-12T13:44:34.137Z,3.25
2023-03-12T13:47:26.224Z,3.23
2023-03-12T13:50:20.118Z,3.23
2023-03-12T13:53:04.172Z,3.23
2023-03-12T13:55:56.137Z,3.23
2023-03-12T13:58:29.256Z,3.25
2023-03-12T14:01:25.209Z,3.26
2023-03-12T14:04:07.232Z,3.25
2023-03-12T14:07:33.139Z,3.27
2023-03-12T14:10:16.146Z,3.25
2023-03-12T14:13:28.135Z,3.26
2023-03-12T14:16:33.207Z,3.21
2023-03-12T14:19:14.155Z,3.20
2023-03-12T14:22:13.125Z,3.23
2023-03-12T14:25:11.160Z,3.23
2023-03-12T14:27:58.171Z,3.17
2023-03-12T14:30:48.215Z,3.11
2023-03-12T14:33:47.145Z,3.12
2023-03-12T14:36:28.265Z,3.11
2023-03-12T14:39:27.152Z,3.09
2023-03-12T14:42:15.153Z,3.07
2023-03-12T14:45:08.170Z,3.04
2023-03-12T14:47:59.169Z,3.03
2023-03-12T14:50:55.257Z,3.02
2023-03-12T14:53:46.154Z,3.02
2023-03-12T14:56:47.152Z,3.02
2023-03-12T14:59:47.170Z,3.02
2023-03-12T15:02:37.160Z,3.03
2023-03-12T15:05:11.347Z,3.03
2023-03-12T15:08:09.151Z,3.02
2023-03-12T15:10:44.251Z,3.00
2023-03-12T15:13:34.157Z,2.98
2023-03-12T15:16:07.340Z,2.99
2023-03-12T15:18:56.164Z,2.98
2023-03-12T15:21:37.154Z,2.99
2023-03-12T15:24:31.164Z,3.00
2023-03-12T15:27:35.176Z,3.03
2023-03-12T15:30:15.172Z,3.04
2023-03-12T15:33:24.170Z,3.04
2023-03-12T15:36:21.170Z,3.03
2023-03-12T15:39:37.264Z,3.00
2023-03-12T15:42:24.393Z,2.96
2023-03-12T15:45:11.164Z,2.95
2023-03-12T15:47:47.268Z,2.95
2023-03-12T15:50:43.225Z,2.91
2023-03-12T15:53:19.274Z,2.88
2023-03-12T15:56:27.188Z,2.87
2023-03-12T15:59:38.171Z,2.85
2023-03-12T16:02:49.196Z,2.81
2023-03-12T16:05:39.194Z,2.78
2023-03-12T16:08:21.281Z,2.72
2023-03-12T16:11:08.190Z,2.67
2023-03-12T16:13:42.058Z,2.66
2023-03-12T16:16:29.267Z,2.63
2023-03-12T16:19:02.384Z,2.61
2023-03-12T16:21:50.180Z,2.57
2023-03-12T16:24:30.210Z,2.54
2023-03-12T16:27:32.926Z,2.51
2023-03-12T16:30:42.188Z,2.47
2023-03-12T16:33:20.282Z,2.42
2023-03-12T16:36:07.216Z,2.40
2023-03-12T16:38:47.190Z,2.36
2023-03-12T16:41:42.195Z,2.30
2023-03-12T16:44:36.187Z,2.27
2023-03-12T16:47:23.186Z,2.23
2023-03-12T16:50:03.203Z,2.18
2023-03-12T16:52:53.183Z,2.14
2023-03-12T16:55:29.315Z,2.11
2023-03-12T16:58:20.187Z,2.08
2023-03-12T17:01:01.232Z,2.06
2023-03-12T17:03:57.653Z,2.03
2023-03-12T17:06:46.188Z,1.99
2023-03-12T17:09:19.302Z,1.94
2023-03-12T17:12:06.198Z,1.84
2023-03-12T17:14:47.207Z,1.81
2023-03-12T17:17:34.289Z,1.74
2023-03-12T17:20:10.178Z,1.65
2023-03-12T17:22:57.192Z,1.59
2023-03-12T17:25:34.305Z,1.57
2023-03-12T17:28:22.228Z,1.55
2023-03-12T17:30:55.608Z,1.52
2023-03-12T17:33:42.212Z,1.46
2023-03-12T17:36:16.317Z,1.44
2023-03-12T17:39:03.195Z,1.40
2023-03-12T17:41:39.255Z,1.38
2023-03-12T17:44:26.203Z,1.32
2023-03-12T17:47:06.272Z,1.27
2023-03-12T17:49:53.205Z,1.20
2023-03-12T17:52:33.199Z,1.12
2023-03-12T17:55:27.235Z,1.05
2023-03-12T17:58:14.200Z,1.00
2023-03-12T18:00:47.339Z,0.97
2023-03-12T18:03:34.323Z,0.92
2023-03-12T18:06:15.232Z,0.86
2023-03-12T18:09:09.270Z,0.80
2023-03-12T18:11:56.301Z,0.74
2023-03-12T18:14:29.335Z,0.69
2023-03-12T18:17:16.243Z,0.65
2023-03-12T18:19:49.470Z,0.63
2023-03-12T18:22:36.247Z,0.60
2023-03-12T18:25:09.408Z,0.62
2023-03-12T18:27:56.748Z,0.64
2023-03-12T18:30:37.232Z,0.63
2023-03-12T18:33:24.239Z,0.62
2023-03-12T18:36:04.281Z,0.62
2023-03-12T18:38:58.244Z,0.60
2023-03-12T18:41:45.223Z,0.62
2023-03-12T18:44:18.322Z,0.59
2023-03-12T18:47:05.368Z,0.56
2023-03-12T18:49:38.362Z,0.54
2023-03-12T18:52:25.280Z,0.49
2023-03-12T18:54:58.412Z,0.47
2023-03-12T18:57:45.233Z,0.45
2023-03-12T19:00:21.814Z,0.41
2023-03-12T19:03:08.341Z,0.38
2023-03-12T19:05:48.257Z,0.35
2023-03-12T19:08:36.257Z,0.31
2023-03-12T19:11:21.255Z,0.25
2023-03-12T19:14:15.249Z,0.18
2023-03-12T19:17:02.394Z,0.13
2023-03-12T19:19:42.263Z,0.11
2023-03-12T19:22:32.240Z,0.06
2023-03-12T19:25:12.280Z,0.02
2023-03-12T19:27:59.312Z,-0.02
2023-03-12T19:30:40.253Z,-0.05
2023-03-12T19:33:35.315Z,-0.10
2023-03-12T19:36:29.283Z,-0.16
2023-03-12T19:39:21.547Z,-0.21
2023-03-12T19:42:05.248Z,-0.26
2023-03-12T19:44:52.280Z,-0.29
2023-03-12T19:47:26.824Z,-0.31
2023-03-12T19:50:15.244Z,-0.35
2023-03-12T19:52:48.453Z,-0.40
2023-03-12T19:55:35.365Z,-0.44
2023-03-12T19:58:16.317Z,-0.46
2023-03-12T20:01:14.261Z,-0.48
2023-03-12T20:04:01.284Z,-0.51
2023-03-12T20:06:34.374Z,-0.53
2023-03-12T20:09:21.289Z,-0.50
2023-03-12T20:12:01.259Z,-0.52
2023-03-12T20:14:48.289Z,-0.52
2023-03-12T20:17:22.391Z,-0.50
2023-03-12T20:20:09.260Z,-0.51
2023-03-12T20:22:50.263Z,-0.46
2023-03-12T20:25:44.250Z,-0.50
2023-03-12T20:28:31.291Z,-0.51
2023-03-12T20:31:04.373Z,-0.55
2023-03-12T20:33:51.312Z,-0.56
2023-03-12T20:36:24.420Z,-0.58
2023-03-12T20:39:11.283Z,-0.58
2023-03-12T20:41:51.290Z,-0.57
2023-03-12T20:44:38.303Z,-0.53
2023-03-12T20:47:11.402Z,-0.52
2023-03-12T20:50:05.333Z,-0.54
2023-03-12T20:52:59.302Z,-0.56
2023-03-12T20:55:53.327Z,-0.57
2023-03-12T20:58:47.282Z,-0.56
2023-03-12T21:01:41.345Z,-0.54
2023-03-12T21:04:28.302Z,-0.53
2023-03-12T21:07:01.399Z,-0.52
2023-03-12T21:09:48.358Z,-0.51
2023-03-12T21:12:21.379Z,-0.49
2023-03-12T21:15:12.322Z,-0.47
2023-03-12T21:17:46.465Z,-0.46
2023-03-12T21:20:33.291Z,-0.44
2023-03-12T21:23:13.369Z,-0.44
2023-03-12T21:26:15.347Z,-0.43
2023-03-12T21:29:02.321Z,-0.37
2023-03-12T21:31:35.892Z,-0.35
2023-03-12T21:34:22.269Z,-0.30
2023-03-12T21:36:55.483Z,-0.29
2023-03-12T21:39:42.291Z,-0.30
2023-03-12T21:42:15.391Z,-0.30
2023-03-12T21:45:02.316Z,-0.27
2023-03-12T21:47:35.460Z,-0.22
2023-03-12T21:50:29.358Z,-0.19
2023-03-12T21:53:24.230Z,-0.13
2023-03-12T21:56:20.347Z,-0.10
2023-03-12T21:59:14.328Z,-0.08
2023-03-12T22:02:08.305Z,-0.05
2023-03-12T22:04:58.308Z,-0.04
2023-03-12T22:07:38.322Z,-0.03
2023-03-12T22:10:25.305Z,-0.03
2023-03-12T22:13:05.299Z,-0.03
2023-03-12T22:16:08.527Z,-0.02
2023-03-12T22:18:55.343Z,-0.01
2023-03-12T22:21:29.459Z,0.01
2023-03-12T22:24:17.364Z,0.02
2023-03-12T22:26:59.436Z,0.04
2023-03-12T22:29:53.318Z,0.05
2023-03-12T22:32:40.384Z,0.04
2023-03-12T22:35:14.451Z,0.06
2023-03-12T22:38:01.301Z,0.07
2023-03-12T22:40:34.615Z,0.07
2023-03-12T22:43:22.455Z,0.08
2023-03-12T22:46:00.392Z,0.08
2023-03-12T22:48:47.326Z,0.08
2023-03-12T22:51:28.322Z,0.11
2023-03-12T22:54:15.345Z,0.12
2023-03-12T22:56:48.409Z,0.12
2023-03-12T22:59:35.320Z,0.13
2023-03-12T23:02:08.671Z,0.15
2023-03-12T23:04:55.417Z,0.18
2023-03-12T23:07:29.436Z,0.17
2023-03-12T23:10:34.325Z,0.16
2023-03-12T23:13:09.387Z,0.18
2023-03-12T23:15:56.326Z,0.16
2023-03-12T23:18:29.412Z,0.19
2023-03-12T23:21:19.328Z,0.23
2023-03-12T23:24:00.312Z,0.24
2023-03-12T23:26:48.398Z,0.24
2023-03-12T23:29:21.512Z,0.23
2023-03-12T23:32:08.338Z,0.24
2023-03-12T23:34:41.433Z,0.26
2023-03-12T23:37:28.326Z,0.29
2023-03-12T23:40:08.334Z,0.29
2023-03-12T23:42:55.359Z,0.31
2023-03-12T23:45:35.426Z,0.32
2023-03-12T23:48:29.334Z,0.33
2023-03-12T23:51:27.348Z,0.33
2023-03-12T23:54:14.394Z,0.35
2023-03-12T23:56:48.527Z,0.37
2023-03-12T23:59:35.360Z,0.39
